Aérodrome :
LOGIN :

S'inscrire | Disclaimer

   EN    FR    IT 

 










Légende :    VFR   VFR Marginal   IFR   IFR Intensif   IFR Très Intensif
Visi : 
Plafond : 
>= 8 km
>= 3000ft
5 à 8 km
1000 à 3000 ft
1500m à 5 km
500 à 1000 ft
800 à 1500m
200 à 500 ft
< 800m
< 200 ft
Symboles :   Orages  Brouillard  Fortes neiges  Fortes précipitations  Vent > 20 kt
SIGMETs :   Divers  Orages  Givrage  Turbulence  Onde Orograph.  Cendres Volcan.







- Altitude de l'aérodrome : 52 ft
- Code IATA : IOM
- Voir les cartes d'approche


EGNS - Isle of Man

DERNIER METAR :
  • 132020Z 20018KT 9999 FEW012 BKN040 12/09 Q1015 TEMPO 7000 -RADZ BKN014

METARs EXPIRÉS :
  • 131950Z 19023KT 9999 FEW012 SCT030 12/10 Q1016 TEMPO 7000 -RADZ BKN014
  • 131920Z 20019KT 9999 FEW018 12/10 Q1015 TEMPO 9000 -RADZ
  • 131850Z 20020KT 9999 FEW012 SCT018 12/09 Q1015 TEMPO 9000 -RADZ
  • 131820Z 20018KT 9999 FEW015 SCT020 12/09 Q1015 NOSIG
  • 131750Z 21021KT 9999 FEW015 SCT040 12/09 Q1016 NOSIG

TAF TAF EGNS
Valide du 13 à 18h jusqu'au 13 à 22h UTC


131700Z 1318/1322 21017KT 9999 FEW016 SCT035
TEMPO 1318/1320 21018G28KT
BECMG 1320/1322 20020G30KT
PROB30
TEMPO 1320/1322 7000 -RADZ BKN014
Pas de NOTAMs connus pour ce terrain.



MET'MAP, la Météo Aéronautique d'un coup d'oeil ! - Copyright ORBIFLY Décembre 2007 - Disclaimer

ORBIFLY MET'MAP TEAM :

Programmation & Développement : Alexandra Zaïnal
Conception & Développement : Baudouin d'Aumeries
Co-Programmation & Développement : Marc-Olivier Méhu
Soutien technique & logistique : Manuel Goepfert

Contact : metmap@orbifly.com




SOURCES & CREDITS :

   NOAA